Time;durP1;ratioP1;P1;durP2;ratioP2;P2;SDS_P1;SDS_P2;PMS_P1;PMS_P2;Temp;Humidity;BMP_temperature;BMP_pressure;BME280_temperature;BME280_humidity;BME280_pressure;Samples;Min_cycle;Max_cycle;Signal;HPM_P1;HPM_P2
2023/02/13 00:01:10;;;;;;;32.53;17.00;;;3.90;81.50;;;;;;5135506;27;20096;-78
2023/02/13 00:03:35;;;;;;;32.35;15.88;;;4.00;81.20;;;;;;5135702;27;20030;-81
2023/02/13 00:06:01;;;;;;;33.92;19.00;;;4.00;80.50;;;;;;5135604;27;20046;-81
2023/02/13 00:08:26;;;;;;;29.75;16.77;;;4.00;80.10;;;;;;5135460;27;20049;-80
2023/02/13 00:10:52;;;;;;;28.40;16.35;;;4.00;80.10;;;;;;5135145;27;20384;-79
2023/02/13 00:13:17;;;;;;;29.05;16.77;;;3.90;80.10;;;;;;5135375;27;20554;-78
2023/02/13 00:15:43;;;;;;;27.95;17.08;;;3.90;80.20;;;;;;5116823;27;20054;-79
2023/02/13 00:18:09;;;;;;;32.33;17.88;;;4.00;80.00;;;;;;5135110;27;20046;-80
2023/02/13 00:20:34;;;;;;;25.90;15.50;;;3.90;80.00;;;;;;5116551;27;20095;-81
2023/02/13 00:23:00;;;;;;;27.48;16.27;;;3.90;80.70;;;;;;5135164;27;20027;-72
2023/02/13 00:25:25;;;;;;;26.90;15.30;;;3.90;80.70;;;;;;5135126;27;20030;-72
2023/02/13 00:27:52;;;;;;;28.13;16.50;;;4.00;80.30;;;;;;5116592;27;20060;-73
2023/02/13 00:30:19;;;;;;;30.45;16.65;;;4.00;79.80;;;;;;5116600;27;20114;-72
2023/02/13 00:32:45;;;;;;;24.20;14.70;;;4.00;79.40;;;;;;5134901;27;20027;-73
2023/02/13 00:35:10;;;;;;;24.48;14.43;;;3.90;80.20;;;;;;5134796;27;20425;-73
2023/02/13 00:37:36;;;;;;;27.60;16.17;;;3.90;79.00;;;;;;5134633;27;20367;-73
2023/02/13 00:40:02;;;;;;;25.70;15.57;;;3.80;79.00;;;;;;5134957;27;20356;-77
2023/02/13 00:42:27;;;;;;;24.70;15.38;;;3.90;79.30;;;;;;5135499;27;20042;-75
2023/02/13 00:44:53;;;;;;;24.90;14.52;;;3.80;79.20;;;;;;5137519;27;20042;-83
2023/02/13 00:47:19;;;;;;;23.65;13.95;;;3.80;79.20;;;;;;5118537;27;20364;-80
2023/02/13 00:49:44;;;;;;;24.52;15.00;;;3.80;79.30;;;;;;5119029;27;20027;-80
2023/02/13 00:52:10;;;;;;;27.88;15.88;;;3.80;79.40;;;;;;5139024;27;20059;-77
2023/02/13 00:54:35;;;;;;;34.33;18.80;;;3.80;79.40;;;;;;5142544;27;20519;-75
2023/02/13 00:57:01;;;;;;;32.10;17.20;;;3.70;80.60;;;;;;5142219;27;20413;-79
2023/02/13 00:59:27;;;;;;;34.67;17.88;;;3.70;80.90;;;;;;5135665;27;20042;-76
2023/02/13 01:01:53;;;;;;;32.10;18.88;;;3.60;81.40;;;;;;5134892;27;20054;-80
2023/02/13 01:04:19;;;;;;;32.95;18.05;;;3.60;81.20;;;;;;5134646;27;20542;-77
2023/02/13 01:06:45;;;;;;;35.15;18.88;;;3.60;81.20;;;;;;5134322;27;20145;-81
2023/02/13 01:09:10;;;;;;;30.10;17.70;;;3.60;81.30;;;;;;5136178;27;20463;-80
2023/02/13 01:11:36;;;;;;;31.05;17.38;;;3.60;82.20;;;;;;5142476;27;20031;-79
2023/02/13 01:14:02;;;;;;;30.63;17.23;;;3.60;81.10;;;;;;5144339;27;20021;-79
2023/02/13 01:16:27;;;;;;;30.88;17.10;;;3.50;80.70;;;;;;5118863;27;20494;-74
2023/02/13 01:18:53;;;;;;;28.13;16.77;;;3.50;80.60;;;;;;5134286;27;20029;-83
2023/02/13 01:21:22;;;;;;;30.27;18.88;;;3.50;80.90;;;;;;5134355;27;20383;-81
2023/02/13 01:23:48;;;;;;;33.03;19.08;;;3.40;80.10;;;;;;5115764;27;20034;-85
2023/02/13 01:26:21;;;;;;;30.77;18.50;;;3.40;80.20;;;;;;5134199;27;20110;-82
2023/02/13 01:28:46;;;;;;;29.65;17.70;;;3.30;80.20;;;;;;5134260;27;20027;-82
2023/02/13 01:31:12;;;;;;;37.47;19.55;;;3.30;80.10;;;;;;5135082;27;20015;-79
2023/02/13 01:33:38;;;;;;;36.17;19.85;;;3.20;79.60;;;;;;5115621;27;20077;-81
2023/02/13 01:36:08;;;;;;;34.80;19.77;;;3.00;79.80;;;;;;5133626;27;20126;-81
2023/02/13 01:38:34;;;;;;;32.63;18.58;;;2.90;80.70;;;;;;5133704;27;20022;-81
2023/02/13 01:40:59;;;;;;;39.47;21.17;;;2.90;80.70;;;;;;5133714;28;20387;-80
2023/02/13 01:43:42;;;;;;;32.85;19.55;;;2.90;80.30;;;;;;5133879;28;20068;-77
2023/02/13 01:46:09;;;;;;;38.78;20.52;;;2.80;79.90;;;;;;5133591;28;20479;-82
2023/02/13 01:48:35;;;;;;;41.03;21.63;;;2.80;79.50;;;;;;5133897;28;20023;-79
2023/02/13 01:51:09;;;;;;;43.40;22.60;;;2.80;79.10;;;;;;5133915;28;20111;-84
2023/02/13 01:53:41;;;;;;;46.90;23.67;;;2.80;78.40;;;;;;5133745;28;20459;-72
2023/02/13 01:56:16;;;;;;;64.15;30.42;;;2.70;78.00;;;;;;5133603;28;20026;-83
2023/02/13 01:58:45;;;;;;;61.33;29.10;;;2.50;77.60;;;;;;5133806;28;20031;-83
2023/02/13 02:01:10;;;;;;;65.45;29.27;;;2.40;77.90;;;;;;5133603;28;20027;-82
2023/02/13 02:03:42;;;;;;;73.72;31.77;;;2.30;77.90;;;;;;5133651;28;20046;-82
2023/02/13 02:06:13;;;;;;;71.45;31.65;;;2.30;78.20;;;;;;5133397;28;20392;-83
2023/02/13 02:08:39;;;;;;;73.45;32.28;;;2.30;78.70;;;;;;5133417;28;20027;-82
2023/02/13 02:11:16;;;;;;;79.25;34.90;;;2.20;78.80;;;;;;5133541;28;20020;-82
2023/02/13 02:13:42;;;;;;;69.05;32.00;;;2.20;78.80;;;;;;5133489;28;20476;-82
2023/02/13 02:16:08;;;;;;;77.60;34.08;;;2.20;78.60;;;;;;5133415;28;20031;-81
2023/02/13 02:18:33;;;;;;;69.90;30.52;;;2.20;78.30;;;;;;5134401;27;20063;-81
2023/02/13 02:21:19;;;;;;;72.25;29.92;;;2.10;78.10;;;;;;5119190;27;20016;-83
2023/02/13 02:23:51;;;;;;;72.70;30.60;;;2.00;78.20;;;;;;5119405;27;20504;-82
2023/02/13 02:26:42;;;;;;;68.93;28.60;;;1.90;78.20;;;;;;5137237;27;20513;-74
2023/02/13 02:29:42;;;;;;;55.65;25.80;;;1.90;78.40;;;;;;5137059;27;20080;-76
2023/02/13 02:32:19;;;;;;;54.92;25.10;;;1.70;78.70;;;;;;5137152;27;20080;-74
2023/02/13 02:34:55;;;;;;;41.17;21.98;;;1.70;79.00;;;;;;5137114;27;20501;-73
2023/02/13 02:37:29;;;;;;;40.17;20.50;;;1.60;78.50;;;;;;5136772;27;20083;-72
2023/02/13 02:40:32;;;;;;;32.37;17.33;;;1.60;78.50;;;;;;5137094;27;20015;-72
2023/02/13 02:43:12;;;;;;;29.02;17.10;;;1.40;78.40;;;;;;5136828;27;20031;-72
2023/02/13 02:45:55;;;;;;;28.45;16.80;;;1.40;78.40;;;;;;5136824;27;20067;-73
2023/02/13 02:51:19;;;;;;;24.17;14.25;;;1.40;78.20;;;;;;5136729;27;20490;-72
2023/02/13 02:55:05;;;;;;;21.25;12.77;;;1.40;78.00;;;;;;5136729;27;20084;-73
2023/02/13 02:56:51;;;;;;;20.02;12.95;;;1.40;78.20;;;;;;5136470;27;20070;-73
2023/02/13 03:07:41;;;;;;;20.70;13.60;;;1.50;78.10;;;;;;5136886;27;20128;-77
2023/02/13 03:13:20;;;;;;;20.75;13.40;;;1.60;77.60;;;;;;5140667;27;20138;-74
2023/02/13 03:22:20;;;;;;;23.58;14.18;;;1.60;77.20;;;;;;5056530;28;20040;-78
2023/02/13 03:25:12;;;;;;;20.00;12.95;;;1.70;77.30;;;;;;5055224;28;20029;-74
2023/02/13 03:30:44;;;;;;;17.85;11.23;;;1.60;76.80;;;;;;5138134;27;20100;-72
2023/02/13 03:33:40;;;;;;;22.92;13.18;;;1.60;76.70;;;;;;5117626;27;20466;-74
2023/02/13 03:39:39;;;;;;;23.65;14.48;;;1.60;76.20;;;;;;5131308;27;20053;-72
2023/02/13 03:42:26;;;;;;;22.10;13.00;;;1.60;76.00;;;;;;5099579;27;20502;-72
2023/02/13 03:47:51;;;;;;;21.08;13.13;;;1.60;76.20;;;;;;5136195;27;20429;-73
2023/02/13 03:50:18;;;;;;;18.38;12.32;;;1.50;76.00;;;;;;5118295;27;20038;-77
2023/02/13 03:52:54;;;;;;;18.50;12.05;;;1.50;75.80;;;;;;5117968;27;20023;-74
2023/02/13 04:01:22;;;;;;;18.90;12.35;;;1.50;75.60;;;;;;5135757;27;20118;-74
2023/02/13 04:04:09;;;;;;;20.33;12.68;;;1.40;75.40;;;;;;5117192;27;20015;-74
2023/02/13 04:06:43;;;;;;;16.25;10.95;;;1.40;75.50;;;;;;5116800;27;20118;-75
2023/02/13 04:09:09;;;;;;;17.00;11.77;;;1.40;75.60;;;;;;5135617;27;20019;-73
2023/02/13 04:12:11;;;;;;;19.67;12.35;;;1.40;75.60;;;;;;5117077;27;20035;-74
2023/02/13 04:15:06;;;;;;;22.10;13.02;;;1.40;75.40;;;;;;5135329;27;20020;-74
2023/02/13 04:17:58;;;;;;;20.20;12.73;;;1.30;75.40;;;;;;5116821;27;20463;-75
2023/02/13 04:20:27;;;;;;;21.70;13.68;;;1.40;75.30;;;;;;5116564;27;20082;-74
2023/02/13 04:22:53;;;;;;;21.92;13.35;;;1.40;74.80;;;;;;5116543;27;20050;-74
2023/02/13 04:25:19;;;;;;;23.88;14.88;;;1.30;74.60;;;;;;5116446;27;20055;-73
2023/02/13 04:27:45;;;;;;;23.02;14.35;;;1.30;74.30;;;;;;5116858;27;20023;-76
2023/02/13 04:30:11;;;;;;;23.23;14.45;;;1.30;74.40;;;;;;5116802;27;20027;-72
2023/02/13 04:32:37;;;;;;;26.30;14.40;;;1.30;74.40;;;;;;5116468;27;20387;-74
2023/02/13 04:35:04;;;;;;;22.70;13.55;;;1.30;74.40;;;;;;5116233;27;20023;-75
2023/02/13 04:37:29;;;;;;;24.83;14.45;;;1.30;74.40;;;;;;5116295;27;20182;-74
2023/02/13 04:39:55;;;;;;;22.30;13.13;;;1.40;74.20;;;;;;5116295;27;20027;-73
2023/02/13 04:42:21;;;;;;;23.63;14.10;;;1.40;73.80;;;;;;5134036;27;20027;-74
2023/02/13 04:44:46;;;;;;;19.73;12.68;;;1.40;73.60;;;;;;5115726;27;20015;-74
2023/02/13 04:47:12;;;;;;;23.02;13.65;;;1.40;73.40;;;;;;5115953;27;20117;-74
2023/02/13 04:49:37;;;;;;;24.85;13.30;;;1.40;73.20;;;;;;5116027;27;20057;-74
2023/02/13 04:52:03;;;;;;;23.00;13.60;;;1.30;73.10;;;;;;5123351;27;20027;-74
2023/02/13 04:54:29;;;;;;;21.75;12.48;;;1.30;73.20;;;;;;5139181;27;20019;-74
2023/02/13 04:56:54;;;;;;;22.00;13.90;;;1.20;73.20;;;;;;5134185;27;20110;-74
2023/02/13 04:59:20;;;;;;;20.02;12.65;;;1.20;72.90;;;;;;5116118;27;20444;-75
2023/02/13 05:01:45;;;;;;;22.15;12.18;;;1.20;72.90;;;;;;5115831;27;20022;-75
2023/02/13 05:04:15;;;;;;;20.52;13.05;;;1.20;72.90;;;;;;5134210;27;20499;-75
2023/02/13 05:06:40;;;;;;;23.70;13.80;;;1.10;73.00;;;;;;5116214;27;20035;-75
2023/02/13 05:09:08;;;;;;;20.42;13.15;;;1.20;73.10;;;;;;5115614;27;20114;-75
2023/02/13 05:11:34;;;;;;;22.17;13.52;;;1.20;73.00;;;;;;5115976;27;20034;-74
2023/02/13 05:14:00;;;;;;;23.55;14.13;;;1.20;72.80;;;;;;5115435;27;20379;-75
2023/02/13 05:16:25;;;;;;;21.58;13.77;;;1.20;72.60;;;;;;5134029;27;20096;-74
2023/02/13 05:18:53;;;;;;;22.98;14.52;;;1.10;73.60;;;;;;5115884;27;20023;-76
2023/02/13 05:24:08;;;;;;;27.05;15.57;;;0.90;72.60;;;;;;5095256;27;20038;-74
2023/02/13 05:26:34;;;;;;;23.83;14.93;;;0.70;72.30;;;;;;5115260;27;20024;-74
2023/02/13 05:29:18;;;;;;;24.92;15.57;;;0.60;73.30;;;;;;5133956;27;20020;-77
2023/02/13 05:31:48;;;;;;;25.83;16.65;;;0.60;73.90;;;;;;5133962;27;20037;-83
2023/02/13 05:34:13;;;;;;;24.08;15.48;;;0.60;74.40;;;;;;5115707;27;20019;-75
2023/02/13 05:36:39;;;;;;;26.17;16.98;;;0.60;74.50;;;;;;5115358;28;20399;-81
2023/02/13 05:39:05;;;;;;;24.75;16.50;;;0.60;74.50;;;;;;5115654;28;20024;-75
2023/02/13 05:41:31;;;;;;;27.00;17.17;;;0.70;74.40;;;;;;5133916;28;20520;-76
2023/02/13 05:43:56;;;;;;;26.55;16.00;;;0.70;74.30;;;;;;5115594;28;20035;-74
2023/02/13 05:46:22;;;;;;;28.92;16.58;;;0.60;74.40;;;;;;5133827;28;20027;-74
2023/02/13 05:48:48;;;;;;;26.08;16.77;;;0.70;74.50;;;;;;5133682;28;20487;-73
2023/02/13 05:51:13;;;;;;;26.40;17.10;;;0.70;74.40;;;;;;5133842;28;20019;-73
2023/02/13 05:53:41;;;;;;;26.38;17.50;;;0.70;73.80;;;;;;5136792;27;20072;-74
2023/02/13 05:56:07;;;;;;;26.83;17.67;;;0.60;73.60;;;;;;5139626;27;20081;-75
2023/02/13 05:58:33;;;;;;;31.67;20.10;;;0.60;73.70;;;;;;5138170;27;20035;-74
2023/02/13 06:00:59;;;;;;;30.52;19.45;;;0.60;74.10;;;;;;5119608;27;20023;-75
2023/02/13 06:03:28;;;;;;;27.83;17.73;;;0.60;74.10;;;;;;5137966;27;20041;-74
2023/02/13 06:05:54;;;;;;;29.35;17.67;;;0.60;74.10;;;;;;5138339;27;20019;-83
2023/02/13 06:08:21;;;;;;;28.92;17.80;;;0.70;74.00;;;;;;5119846;27;20027;-74
2023/02/13 06:10:47;;;;;;;32.67;20.25;;;0.70;74.00;;;;;;5137971;27;20076;-74
2023/02/13 06:13:13;;;;;;;35.60;21.58;;;0.70;74.10;;;;;;5137766;27;20023;-74
2023/02/13 06:15:39;;;;;;;34.80;20.88;;;0.70;74.10;;;;;;5137782;27;20029;-74
2023/02/13 06:18:04;;;;;;;33.35;20.10;;;0.70;73.90;;;;;;5118953;27;20043;-73
2023/02/13 06:20:30;;;;;;;35.45;22.30;;;0.70;74.20;;;;;;5137496;27;20017;-77
2023/02/13 06:22:55;;;;;;;34.17;19.88;;;0.70;74.30;;;;;;5137473;27;20361;-79
2023/02/13 06:25:21;;;;;;;32.38;19.55;;;0.70;74.30;;;;;;5137453;27;20094;-84
2023/02/13 06:27:47;;;;;;;33.22;20.33;;;0.70;74.50;;;;;;5137483;27;20031;-82
2023/02/13 06:30:14;;;;;;;31.77;19.55;;;0.60;74.40;;;;;;5136788;27;20027;-77
2023/02/13 06:32:39;;;;;;;31.40;18.35;;;0.70;74.40;;;;;;5118784;27;20478;-77
2023/02/13 06:35:06;;;;;;;39.83;23.90;;;0.70;74.10;;;;;;5137031;27;20028;-84
2023/02/13 06:37:31;;;;;;;42.80;27.80;;;0.70;74.00;;;;;;5118771;27;20039;-80
2023/02/13 06:39:57;;;;;;;43.97;27.05;;;0.80;73.90;;;;;;5118853;27;20421;-74
2023/02/13 06:42:23;;;;;;;40.15;24.10;;;0.80;73.40;;;;;;5119079;27;20069;-84
2023/02/13 06:44:48;;;;;;;39.70;24.10;;;0.70;73.40;;;;;;5137115;27;20054;-73
2023/02/13 06:47:14;;;;;;;37.53;23.17;;;0.70;73.50;;;;;;5137005;27;20068;-77
2023/02/13 06:49:39;;;;;;;37.53;22.17;;;0.70;73.30;;;;;;5136954;27;20380;-74
2023/02/13 06:52:05;;;;;;;38.13;21.40;;;0.70;73.10;;;;;;5136537;27;20514;-74
2023/02/13 06:54:30;;;;;;;35.88;22.80;;;0.80;74.00;;;;;;5118165;27;20016;-79
2023/02/13 06:56:56;;;;;;;35.85;21.98;;;0.80;73.00;;;;;;5136903;27;20107;-74
2023/02/13 06:59:21;;;;;;;36.47;21.90;;;0.90;73.00;;;;;;5136794;27;20483;-77
2023/02/13 07:01:47;;;;;;;37.85;22.23;;;1.00;72.90;;;;;;5118089;27;20015;-74
2023/02/13 07:04:12;;;;;;;36.40;22.80;;;1.00;72.40;;;;;;5135803;27;20023;-73
2023/02/13 07:06:38;;;;;;;36.40;22.48;;;1.00;72.10;;;;;;5136682;27;20387;-72
2023/02/13 07:09:04;;;;;;;32.50;20.73;;;1.10;72.00;;;;;;5136774;27;20083;-73
2023/02/13 07:11:30;;;;;;;32.03;20.10;;;1.10;71.70;;;;;;5137013;27;20027;-74
2023/02/13 07:13:55;;;;;;;31.40;19.17;;;1.20;71.40;;;;;;5136575;27;20072;-72
2023/02/13 07:16:21;;;;;;;33.65;19.27;;;1.20;71.30;;;;;;5144199;27;20039;-75
2023/02/13 07:18:47;;;;;;;29.83;19.23;;;1.20;71.20;;;;;;5136048;27;20055;-74
2023/02/13 07:21:12;;;;;;;29.08;18.23;;;1.20;71.20;;;;;;5136675;27;20382;-82
2023/02/13 07:23:38;;;;;;;29.58;19.98;;;1.20;71.10;;;;;;5136646;27;20016;-73
2023/02/13 07:26:04;;;;;;;30.95;19.73;;;1.20;71.00;;;;;;5136080;27;20372;-73
2023/02/13 07:28:30;;;;;;;28.90;18.00;;;1.20;71.10;;;;;;5136152;27;20023;-74
2023/02/13 07:30:56;;;;;;;30.27;19.20;;;1.20;71.40;;;;;;5136188;27;20472;-82
2023/02/13 07:33:22;;;;;;;31.80;19.23;;;1.30;71.60;;;;;;5136242;27;20034;-72
2023/02/13 07:35:49;;;;;;;29.00;17.70;;;1.50;71.40;;;;;;5135854;27;20062;-72
2023/02/13 07:38:15;;;;;;;26.02;17.67;;;1.50;71.20;;;;;;5136056;27;20041;-73
2023/02/13 07:40:41;;;;;;;29.13;18.10;;;1.60;71.20;;;;;;5117655;27;20437;-73
2023/02/13 07:43:06;;;;;;;25.58;16.88;;;1.70;71.30;;;;;;5135930;27;20027;-73
2023/02/13 07:45:32;;;;;;;22.70;15.88;;;1.80;71.30;;;;;;5135837;27;20070;-73
2023/02/13 07:47:58;;;;;;;26.70;17.10;;;1.80;72.10;;;;;;5135623;27;20016;-73
2023/02/13 07:50:24;;;;;;;23.33;14.48;;;1.90;71.20;;;;;;5135802;27;20023;-80
2023/02/13 07:52:58;;;;;;;22.40;14.27;;;1.90;71.30;;;;;;5135557;27;20368;-76
2023/02/13 07:55:23;;;;;;;21.98;14.38;;;2.00;71.40;;;;;;5136322;27;20081;-80
2023/02/13 07:57:49;;;;;;;23.17;14.70;;;2.10;71.50;;;;;;5135855;27;20059;-76
2023/02/13 08:00:16;;;;;;;22.52;15.02;;;2.20;71.50;;;;;;5136036;27;20052;-82
2023/02/13 08:02:41;;;;;;;26.52;14.57;;;2.30;71.40;;;;;;5135636;27;20023;-78
2023/02/13 08:05:07;;;;;;;28.05;15.70;;;2.40;71.20;;;;;;5135713;27;20019;-78
2023/02/13 08:07:33;;;;;;;30.60;17.55;;;2.50;71.00;;;;;;5136268;27;20027;-74
2023/02/13 08:12:44;;;;;;;26.58;15.80;;;2.60;70.90;;;;;;5135848;27;20030;-77
2023/02/13 08:15:14;;;;;;;25.60;15.98;;;2.80;70.70;;;;;;5135280;27;20059;-77
2023/02/13 08:17:39;;;;;;;28.50;17.63;;;2.80;70.40;;;;;;5134316;27;20039;-76
2023/02/13 08:20:07;;;;;;;24.45;15.38;;;2.90;70.60;;;;;;5135188;27;20019;-78
2023/02/13 08:22:33;;;;;;;26.65;15.65;;;3.00;70.30;;;;;;5116399;27;20026;-76
2023/02/13 08:24:58;;;;;;;26.27;16.92;;;3.10;70.20;;;;;;5116274;27;20019;-74
2023/02/13 08:27:24;;;;;;;26.92;16.33;;;3.30;70.10;;;;;;5134989;27;20034;-82
2023/02/13 08:29:50;;;;;;;21.25;13.73;;;3.40;70.20;;;;;;5134955;27;20031;-79
2023/02/13 08:32:16;;;;;;;21.83;14.07;;;3.50;71.70;;;;;;5127912;27;20072;-82
2023/02/13 08:34:41;;;;;;;17.45;11.63;;;3.50;72.20;;;;;;5134808;27;20121;-82
2023/02/13 08:37:07;;;;;;;16.85;11.38;;;3.50;72.50;;;;;;5134631;27;20554;-75
2023/02/13 08:39:32;;;;;;;17.80;11.02;;;3.60;72.50;;;;;;5134640;27;20026;-74
2023/02/13 08:41:58;;;;;;;15.60;11.13;;;3.70;72.40;;;;;;5134638;27;20023;-77
2023/02/13 08:44:24;;;;;;;15.13;10.68;;;3.70;72.00;;;;;;5134471;27;20054;-77
2023/02/13 08:46:49;;;;;;;15.93;10.65;;;3.80;71.70;;;;;;5134708;27;20055;-83
2023/02/13 08:49:15;;;;;;;14.68;10.65;;;3.90;71.40;;;;;;5134848;27;20019;-73
2023/02/13 08:51:40;;;;;;;15.70;10.50;;;3.90;71.30;;;;;;5134405;27;20072;-73
2023/02/13 08:54:06;;;;;;;23.15;11.52;;;3.90;71.50;;;;;;5134815;27;20045;-76
2023/02/13 08:56:32;;;;;;;14.95;10.32;;;4.30;79.20;;;;;;5115887;27;20096;-74
2023/02/13 08:58:57;;;;;;;14.25;9.60;;;4.70;73.70;;;;;;5134259;27;20029;-77
2023/02/13 09:01:23;;;;;;;15.27;9.48;;;4.60;70.80;;;;;;5134312;27;20452;-76
2023/02/13 09:03:48;;;;;;;14.18;9.57;;;4.60;71.90;;;;;;5134207;27;20034;-74
2023/02/13 09:06:14;;;;;;;12.95;9.07;;;4.80;71.50;;;;;;5134273;27;20023;-76
2023/02/13 09:08:40;;;;;;;13.73;9.77;;;5.00;69.40;;;;;;5134105;27;20026;-74
2023/02/13 09:11:06;;;;;;;16.73;10.68;;;5.00;69.60;;;;;;5134185;27;20110;-74
2023/02/13 09:13:34;;;;;;;16.42;10.55;;;5.10;69.10;;;;;;5133980;27;20026;-74
2023/02/13 09:16:01;;;;;;;15.38;11.20;;;5.10;69.60;;;;;;5133848;27;20031;-75
2023/02/13 09:18:27;;;;;;;15.18;10.07;;;5.10;69.30;;;;;;5115178;28;20132;-72
2023/02/13 09:20:58;;;;;;;16.50;10.57;;;5.20;69.40;;;;;;5133339;27;20019;-74
2023/02/13 09:23:24;;;;;;;17.75;11.30;;;5.20;70.40;;;;;;5137250;27;20382;-74
2023/02/13 09:25:49;;;;;;;17.15;11.10;;;5.10;69.40;;;;;;5133894;27;20015;-75
2023/02/13 09:28:15;;;;;;;15.38;10.43;;;5.40;69.30;;;;;;5133429;27;20023;-76
2023/02/13 09:30:40;;;;;;;15.43;10.45;;;5.80;67.00;;;;;;5133919;27;20038;-75
2023/02/13 09:33:10;;;;;;;16.88;10.10;;;5.90;65.90;;;;;;5133618;28;20099;-71
2023/02/13 09:35:36;;;;;;;17.73;10.95;;;6.00;66.50;;;;;;5115002;28;20447;-74
2023/02/13 09:38:03;;;;;;;17.77;11.02;;;6.20;65.10;;;;;;5133662;27;20479;-71
2023/02/13 09:40:39;;;;;;;13.82;10.13;;;6.40;64.30;;;;;;5133432;27;20059;-72
2023/02/13 09:43:35;;;;;;;17.15;11.98;;;6.60;63.40;;;;;;5133775;28;20106;-73
2023/02/13 09:46:10;;;;;;;17.33;10.32;;;6.70;63.20;;;;;;5097388;28;20031;-73
2023/02/13 09:48:39;;;;;;;16.00;10.70;;;6.70;63.30;;;;;;5133509;28;20049;-72
2023/02/13 09:51:05;;;;;;;15.88;10.57;;;6.90;63.00;;;;;;5133866;28;20023;-72
2023/02/13 09:53:35;;;;;;;14.75;9.63;;;6.90;62.50;;;;;;5133313;28;20543;-72
2023/02/13 09:56:15;;;;;;;17.42;9.82;;;7.10;61.40;;;;;;5133557;28;20491;-76
2023/02/13 09:58:47;;;;;;;13.75;9.90;;;7.30;60.80;;;;;;5114940;28;20031;-72
2023/02/13 10:01:19;;;;;;;15.38;9.82;;;7.50;60.20;;;;;;5133339;28;20035;-72
2023/02/13 10:04:25;;;;;;;16.02;10.23;;;7.70;59.60;;;;;;5133405;28;20019;-73
2023/02/13 10:07:19;;;;;;;18.63;12.02;;;8.00;59.40;;;;;;5111406;28;20080;-73
2023/02/13 10:10:01;;;;;;;20.95;12.85;;;8.30;60.10;;;;;;5114870;28;20031;-76
2023/02/13 10:12:43;;;;;;;19.38;13.18;;;8.50;59.00;;;;;;5133507;28;20064;-77
2023/02/13 10:15:11;;;;;;;17.35;12.15;;;8.70;58.80;;;;;;5114935;28;20459;-74
2023/02/13 10:17:43;;;;;;;17.38;11.75;;;8.90;58.00;;;;;;5114617;28;20042;-72
2023/02/13 10:20:21;;;;;;;19.83;12.80;;;9.10;58.10;;;;;;5133239;27;20027;-79
2023/02/13 10:22:54;;;;;;;16.67;12.23;;;9.10;57.70;;;;;;5114987;28;20034;-77
2023/02/13 10:25:24;;;;;;;17.45;12.20;;;9.20;57.60;;;;;;5114835;28;20019;-78
2023/02/13 10:27:54;;;;;;;17.42;12.40;;;9.20;57.00;;;;;;5132553;28;20027;-75
2023/02/13 10:30:25;;;;;;;17.27;11.90;;;9.30;57.20;;;;;;5131947;28;20030;-74
2023/02/13 10:33:18;;;;;;;16.48;11.60;;;9.50;57.00;;;;;;5121783;28;20020;-75
2023/02/13 10:36:01;;;;;;;17.15;12.02;;;9.70;56.60;;;;;;5102549;28;20050;-74
2023/02/13 10:38:30;;;;;;;16.23;11.23;;;9.90;55.20;;;;;;5127462;27;20040;-74
2023/02/13 10:41:14;;;;;;;16.88;12.32;;;10.10;54.80;;;;;;5135928;27;20030;-79
2023/02/13 10:44:15;;;;;;;17.65;13.10;;;9.90;55.10;;;;;;5118464;27;20106;-78
2023/02/13 10:47:15;;;;;;;16.50;11.80;;;9.70;55.60;;;;;;5118265;27;20026;-79
2023/02/13 10:50:14;;;;;;;16.58;12.27;;;9.50;56.70;;;;;;5084064;27;20031;-77
2023/02/13 10:53:05;;;;;;;16.45;12.05;;;9.50;57.20;;;;;;5136413;27;20027;-76
2023/02/13 10:56:09;;;;;;;15.02;11.85;;;9.90;55.50;;;;;;5136275;27;20111;-77
2023/02/13 10:59:01;;;;;;;13.93;10.93;;;10.30;53.90;;;;;;5130911;27;20058;-75
2023/02/13 11:01:41;;;;;;;15.07;11.52;;;10.40;53.10;;;;;;5135875;27;20128;-74
2023/02/13 11:04:16;;;;;;;14.75;11.07;;;10.70;52.50;;;;;;5117397;27;20023;-72
2023/02/13 11:06:51;;;;;;;13.75;11.05;;;11.00;51.50;;;;;;5117869;27;20063;-77
2023/02/13 11:09:17;;;;;;;12.13;8.87;;;11.00;51.70;;;;;;5136307;27;20027;-77
2023/02/13 11:11:43;;;;;;;16.63;12.20;;;11.20;51.00;;;;;;5117681;27;20035;-73
2023/02/13 11:14:26;;;;;;;16.70;10.30;;;10.50;51.60;;;;;;5117489;27;20102;-72
2023/02/13 11:17:02;;;;;;;16.25;10.95;;;10.50;52.40;;;;;;5100536;27;20503;-74
2023/02/13 11:19:50;;;;;;;16.73;11.13;;;10.70;51.70;;;;;;5135612;27;20131;-80
2023/02/13 11:22:26;;;;;;;17.15;11.43;;;10.80;51.50;;;;;;5135914;27;20019;-76
2023/02/13 11:24:57;;;;;;;14.88;10.82;;;11.20;50.70;;;;;;5136462;27;20078;-79
2023/02/13 11:27:29;;;;;;;14.60;11.07;;;11.60;50.00;;;;;;5135843;27;20019;-80
2023/02/13 11:29:57;;;;;;;14.35;10.73;;;12.00;48.70;;;;;;5136005;27;20056;-72
2023/02/13 11:32:31;;;;;;;15.63;10.23;;;12.20;47.90;;;;;;5117114;27;20424;-73
2023/02/13 11:34:57;;;;;;;14.52;10.68;;;12.50;47.80;;;;;;5135551;27;20027;-74
2023/02/13 11:37:28;;;;;;;14.20;10.82;;;12.90;46.60;;;;;;5135316;27;20491;-73
2023/02/13 11:39:56;;;;;;;13.38;9.27;;;13.20;45.30;;;;;;5135211;27;20027;-74
2023/02/13 11:42:34;;;;;;;15.63;10.60;;;13.40;44.50;;;;;;5135248;27;20030;-72
2023/02/13 11:45:19;;;;;;;14.70;9.90;;;12.60;45.20;;;;;;5116861;27;20019;-77
2023/02/13 11:47:45;;;;;;;11.63;9.45;;;12.30;47.70;;;;;;5135235;27;20112;-73
2023/02/13 11:50:33;;;;;;;15.60;11.50;;;12.70;46.80;;;;;;5134931;27;20361;-73
2023/02/13 11:53:04;;;;;;;12.70;9.63;;;13.00;46.40;;;;;;5135678;27;20047;-78
2023/02/13 11:55:31;;;;;;;15.93;11.35;;;12.70;46.70;;;;;;5116907;27;20061;-72
2023/02/13 11:57:59;;;;;;;16.38;11.02;;;13.00;45.70;;;;;;5134781;27;20309;-79
2023/02/13 12:00:32;;;;;;;15.52;9.95;;;12.90;45.30;;;;;;5135054;27;20027;-74
2023/02/13 12:02:58;;;;;;;16.63;10.68;;;12.60;47.20;;;;;;5135186;27;20051;-73
2023/02/13 12:05:26;;;;;;;16.75;11.00;;;12.90;46.60;;;;;;5135139;27;20475;-74
2023/02/13 12:07:57;;;;;;;13.25;10.32;;;13.20;45.30;;;;;;5134878;27;20402;-74
2023/02/13 12:10:25;;;;;;;17.13;10.15;;;13.30;44.40;;;;;;5135747;27;20015;-77
2023/02/13 12:12:58;;;;;;;21.05;10.88;;;13.50;44.60;;;;;;5135439;27;20383;-74
2023/02/13 12:15:35;;;;;;;16.55;9.85;;;13.20;44.10;;;;;;5135336;27;20380;-76
2023/02/13 12:18:20;;;;;;;13.13;10.02;;;13.40;45.50;;;;;;5135547;27;20425;-79
2023/02/13 12:21:07;;;;;;;14.48;10.30;;;13.50;43.90;;;;;;5135258;27;20026;-72
2023/02/13 12:24:08;;;;;;;14.02;9.77;;;12.90;45.50;;;;;;5135162;27;20471;-74
2023/02/13 12:26:57;;;;;;;14.23;9.20;;;13.40;45.70;;;;;;5112698;27;20514;-73
2023/02/13 12:29:32;;;;;;;13.90;9.40;;;14.20;43.50;;;;;;5136545;27;20499;-74
2023/02/13 12:32:03;;;;;;;13.82;9.13;;;14.50;41.20;;;;;;5135074;27;20102;-74
2023/02/13 12:34:37;;;;;;;15.73;9.60;;;14.60;40.90;;;;;;5134832;27;20026;-75
2023/02/13 12:37:59;;;;;;;13.15;10.13;;;15.00;40.90;;;;;;5116576;27;20051;-77
2023/02/13 12:40:58;;;;;;;14.15;9.68;;;15.00;40.20;;;;;;5031923;28;20029;-73
2023/02/13 12:43:24;;;;;;;18.35;9.80;;;15.20;39.90;;;;;;5031443;28;20052;-73
2023/02/13 12:46:08;;;;;;;15.48;9.48;;;15.40;39.70;;;;;;5115528;27;20063;-73
2023/02/13 12:48:56;;;;;;;15.93;10.48;;;15.70;39.00;;;;;;5134368;27;20027;-73
2023/02/13 12:51:30;;;;;;;15.77;10.18;;;15.30;39.80;;;;;;5134530;27;20101;-72
2023/02/13 12:53:59;;;;;;;14.48;9.60;;;15.60;39.30;;;;;;5134385;27;20046;-72
2023/02/13 12:56:52;;;;;;;13.80;9.65;;;16.00;39.20;;;;;;5115544;27;20432;-72
2023/02/13 12:59:48;;;;;;;11.80;9.38;;;16.40;37.50;;;;;;5134402;27;20391;-74
2023/02/13 13:02:56;;;;;;;12.27;9.85;;;16.90;36.50;;;;;;5133596;27;20073;-73
2023/02/13 13:05:40;;;;;;;19.60;10.80;;;17.10;35.90;;;;;;5134330;27;20019;-73
2023/02/13 13:08:12;;;;;;;16.67;9.98;;;16.20;37.50;;;;;;5134150;27;20027;-72
2023/02/13 13:10:52;;;;;;;13.85;9.82;;;16.70;36.80;;;;;;5134606;27;20034;-71
2023/02/13 13:13:21;;;;;;;12.65;8.93;;;17.10;36.10;;;;;;5133989;27;20030;-74
2023/02/13 13:16:23;;;;;;;16.45;9.50;;;17.30;35.80;;;;;;5134083;27;20030;-73
2023/02/13 13:19:07;;;;;;;15.85;9.65;;;17.60;34.80;;;;;;5134112;27;20540;-76
2023/02/13 13:22:06;;;;;;;15.10;10.00;;;17.20;35.20;;;;;;5133983;27;20019;-74
2023/02/13 13:24:44;;;;;;;14.52;10.35;;;17.30;35.70;;;;;;5134097;27;20035;-73
2023/02/13 13:27:19;;;;;;;17.95;10.07;;;17.80;34.20;;;;;;5133615;27;20091;-74
2023/02/13 13:29:52;;;;;;;12.35;9.40;;;17.60;34.40;;;;;;5134000;27;20019;-73
2023/02/13 13:32:20;;;;;;;12.23;9.60;;;18.10;34.40;;;;;;5133834;27;20034;-73
2023/02/13 13:34:46;;;;;;;15.02;10.60;;;18.70;32.90;;;;;;5133999;27;20102;-73
2023/02/13 13:37:29;;;;;;;13.60;10.05;;;19.50;30.90;;;;;;5133631;27;20039;-73
2023/02/13 13:40:08;;;;;;;12.52;10.63;;;20.30;30.00;;;;;;5133955;27;20029;-73